You are listening to:
LTBA Gnd/Twr/App - Istanbul, Turkey

LTBA 240220Z 04007KT 9999 SCT043 23/14 Q1012 NOSIG RMK RWY23 04008KT

If stream doesn't start automatically press the play button
If stream stops then reload player then press play